createdAt,value
2023-03-06T00:09:34.755Z,3.83
2023-03-06T00:24:36.246Z,3.23
2023-03-06T00:39:37.710Z,3.47
2023-03-06T00:54:39.185Z,3.40
2023-03-06T01:09:40.656Z,3.33
2023-03-06T01:24:42.125Z,2.57
2023-03-06T01:39:43.606Z,2.77
2023-03-06T01:54:45.051Z,3.60
2023-03-06T02:09:46.523Z,3.30
2023-03-06T02:24:47.988Z,2.27
2023-03-06T02:39:49.454Z,2.00
2023-03-06T02:54:50.927Z,1.90
2023-03-06T03:09:52.411Z,2.07
2023-03-06T03:24:53.904Z,2.10
2023-03-06T03:39:55.392Z,2.70
2023-03-06T03:54:56.885Z,2.23
2023-03-06T04:09:58.360Z,2.00
2023-03-06T04:24:59.824Z,1.80
2023-03-06T04:40:01.308Z,1.77
2023-03-06T04:55:02.902Z,2.13
2023-03-06T05:10:04.362Z,2.37
2023-03-06T05:25:05.824Z,1.43
2023-03-06T05:40:07.301Z,1.70
2023-03-06T05:55:08.771Z,1.57
2023-03-06T06:10:10.265Z,2.20
2023-03-06T06:25:11.716Z,1.33
2023-03-06T06:40:13.165Z,1.33
2023-03-06T06:55:14.636Z,1.63
2023-03-06T07:10:16.098Z,1.60
2023-03-06T07:25:17.557Z,1.30
2023-03-06T07:40:19.044Z,1.47
2023-03-06T07:55:20.507Z,1.40
2023-03-06T08:10:21.977Z,1.30
2023-03-06T08:25:24.561Z,2.07
2023-03-06T08:40:26.029Z,1.50
2023-03-06T08:55:27.487Z,2.83
2023-03-06T09:10:28.956Z,1.63
2023-03-06T09:25:30.461Z,1.43
2023-03-06T09:40:31.932Z,3.93
2023-03-06T09:55:33.397Z,3.63
2023-03-06T10:10:34.862Z,1.40
2023-03-06T10:25:36.329Z,1.80
2023-03-06T10:40:37.796Z,2.73
2023-03-06T10:55:39.271Z,2.13
2023-03-06T11:10:40.749Z,1.67
2023-03-06T11:25:42.269Z,2.37
2023-03-06T11:40:43.730Z,1.27
2023-03-06T11:55:45.195Z,3.13
2023-03-06T12:10:51.486Z,2.17
2023-03-06T12:25:53.632Z,1.93
2023-03-06T12:40:55.099Z,2.20
2023-03-06T12:55:56.550Z,1.30
2023-03-06T13:10:58.035Z,1.23
2023-03-06T13:25:59.529Z,1.70
2023-03-06T13:41:01.061Z,1.10
2023-03-06T13:56:02.534Z,1.17
2023-03-06T14:11:04.004Z,1.47
2023-03-06T14:26:05.491Z,0.60
2023-03-06T14:41:06.990Z,0.70
2023-03-06T14:56:08.460Z,0.70
2023-03-06T15:11:09.929Z,0.90
2023-03-06T15:26:11.395Z,0.87
2023-03-06T15:41:12.881Z,1.10
2023-03-06T15:56:14.381Z,1.07
2023-03-06T16:11:15.852Z,1.40
2023-03-06T16:26:17.337Z,5.13
2023-03-06T16:41:18.814Z,10.30
2023-03-06T16:56:20.271Z,1.83
2023-03-06T17:11:21.757Z,2.47
2023-03-06T17:26:23.254Z,2.63
2023-03-06T17:41:24.733Z,1.80
2023-03-06T17:56:26.203Z,6.50
2023-03-06T18:11:27.673Z,3.13
2023-03-06T18:26:29.172Z,9.07
2023-03-06T18:41:30.659Z,8.97
2023-03-06T18:56:32.120Z,9.47
2023-03-06T19:11:33.607Z,7.50
2023-03-06T19:26:35.067Z,7.43
2023-03-06T19:41:36.552Z,9.23
2023-03-06T19:56:38.098Z,9.57
2023-03-06T20:11:39.552Z,8.63
2023-03-06T20:26:41.024Z,7.33
2023-03-06T20:41:42.527Z,6.23
2023-03-06T20:56:44.002Z,6.80
2023-03-06T21:11:45.648Z,5.83
2023-03-06T21:26:47.164Z,8.13
2023-03-06T21:41:48.624Z,7.00
2023-03-06T21:56:50.085Z,6.10
2023-03-06T22:11:51.562Z,4.77
2023-03-06T22:26:53.035Z,4.60
2023-03-06T22:41:54.488Z,6.07
2023-03-06T22:56:55.956Z,5.57
2023-03-06T23:11:57.422Z,6.43
2023-03-06T23:26:58.882Z,5.47
2023-03-06T23:42:00.361Z,3.80
2023-03-06T23:57:01.822Z,4.33
